Time;durP1;ratioP1;P1;durP2;ratioP2;P2;SDS_P1;SDS_P2;PMS_P1;PMS_P2;Temp;Humidity;BMP_temperature;BMP_pressure;BME280_temperature;BME280_humidity;BME280_pressure;Samples;Min_cycle;Max_cycle;Signal;HPM_P1;HPM_P2
2022/05/12 00:01:29;;;;;;;6.00;0.80;;;16.30;87.10;;;;;;5036118;28;20037;-75
2022/05/12 00:03:54;;;;;;;4.70;0.50;;;16.30;86.90;;;;;;5035898;28;20358;-75
2022/05/12 00:06:20;;;;;;;7.38;0.70;;;16.10;86.90;;;;;;5036045;28;20057;-75
2022/05/12 00:08:45;;;;;;;5.68;0.90;;;16.10;87.30;;;;;;5035701;28;20109;-75
2022/05/12 00:11:11;;;;;;;7.43;0.65;;;16.00;87.60;;;;;;5035989;28;20101;-75
2022/05/12 00:13:36;;;;;;;8.32;0.85;;;16.00;87.70;;;;;;5035988;28;20029;-75
2022/05/12 00:16:02;;;;;;;6.80;0.93;;;16.00;87.60;;;;;;5035505;28;20041;-75
2022/05/12 00:18:28;;;;;;;7.53;0.50;;;16.00;87.50;;;;;;5035734;28;20067;-75
2022/05/12 00:20:54;;;;;;;5.50;0.80;;;16.00;87.40;;;;;;5035782;28;20053;-75
2022/05/12 00:23:26;;;;;;;12.52;0.98;;;16.00;87.10;;;;;;5035213;28;20026;-75
2022/05/12 00:25:53;;;;;;;3.75;0.65;;;16.00;87.00;;;;;;5035483;28;20045;-75
2022/05/12 00:28:24;;;;;;;6.97;0.93;;;16.00;86.90;;;;;;5035554;28;20021;-75
2022/05/12 00:30:52;;;;;;;4.60;0.50;;;16.00;86.70;;;;;;5035339;28;20481;-75
2022/05/12 00:33:19;;;;;;;5.85;0.40;;;16.00;86.60;;;;;;5035598;28;20033;-75
2022/05/12 00:35:46;;;;;;;6.00;0.90;;;16.00;86.60;;;;;;5034922;28;20029;-75
2022/05/12 00:38:12;;;;;;;4.35;0.45;;;16.00;86.40;;;;;;5035310;28;20480;-75
2022/05/12 00:40:40;;;;;;;7.50;0.45;;;16.10;86.20;;;;;;5035229;28;20022;-75
2022/05/12 00:43:27;;;;;;;3.88;0.60;;;16.10;86.20;;;;;;5035031;28;20029;-75
2022/05/12 00:45:53;;;;;;;6.32;0.50;;;16.10;85.80;;;;;;5034757;28;20079;-75
2022/05/12 00:48:18;;;;;;;5.10;0.70;;;16.20;85.60;;;;;;5035011;28;20029;-75
2022/05/12 00:50:44;;;;;;;5.20;0.50;;;16.30;85.40;;;;;;5035309;28;20025;-75
2022/05/12 00:53:12;;;;;;;4.40;0.50;;;16.40;85.20;;;;;;5034721;28;20060;-75
2022/05/12 00:55:42;;;;;;;5.53;0.60;;;16.50;84.70;;;;;;5034755;28;20033;-75
2022/05/12 00:58:10;;;;;;;5.97;0.45;;;16.50;84.60;;;;;;5034723;28;20453;-75
2022/05/12 01:00:37;;;;;;;5.05;0.43;;;16.50;84.30;;;;;;5035055;28;20033;-75
2022/05/12 01:03:11;;;;;;;5.80;0.55;;;16.50;84.20;;;;;;5034842;28;20373;-75
2022/05/12 01:05:37;;;;;;;5.97;0.47;;;16.60;84.20;;;;;;5034781;28;20021;-75
2022/05/12 01:08:03;;;;;;;4.60;0.40;;;16.60;83.90;;;;;;5034527;28;20026;-75
2022/05/12 01:10:29;;;;;;;4.20;0.50;;;16.60;83.80;;;;;;5034917;28;20075;-75
2022/05/12 01:12:56;;;;;;;5.45;0.95;;;16.50;83.50;;;;;;5034338;28;20043;-75
2022/05/12 01:15:24;;;;;;;4.95;0.55;;;16.40;84.00;;;;;;5034531;28;20044;-75
2022/05/12 01:17:50;;;;;;;6.28;0.65;;;16.40;84.00;;;;;;5034437;28;20033;-75
2022/05/12 01:20:16;;;;;;;4.72;0.77;;;16.40;83.80;;;;;;5034361;28;20021;-75
2022/05/12 01:22:55;;;;;;;5.03;0.63;;;16.40;83.70;;;;;;5034521;28;20028;-75
2022/05/12 01:25:26;;;;;;;5.15;0.70;;;16.40;83.70;;;;;;5034169;28;20029;-75
2022/05/12 01:27:51;;;;;;;5.63;0.63;;;16.30;83.80;;;;;;5034630;28;20103;-75
2022/05/12 01:30:19;;;;;;;4.85;0.82;;;16.10;84.30;;;;;;5034489;28;20077;-75
2022/05/12 01:32:48;;;;;;;6.85;0.60;;;15.90;85.00;;;;;;5034091;28;20067;-75
2022/05/12 01:35:17;;;;;;;7.25;0.70;;;15.80;85.50;;;;;;5033694;28;20481;-75
2022/05/12 01:37:44;;;;;;;7.85;0.60;;;15.80;85.70;;;;;;5034357;28;20116;-75
2022/05/12 01:40:13;;;;;;;5.07;0.60;;;15.70;85.90;;;;;;5034006;28;20021;-76
2022/05/12 01:42:39;;;;;;;7.28;0.75;;;15.70;86.00;;;;;;5033404;28;20034;-76
2022/05/12 01:45:06;;;;;;;11.35;1.02;;;15.80;85.90;;;;;;5033865;28;20076;-75
2022/05/12 01:47:33;;;;;;;4.97;0.82;;;15.80;85.60;;;;;;5033686;28;20064;-75
2022/05/12 01:49:59;;;;;;;10.10;1.20;;;15.80;85.80;;;;;;5033852;28;20021;-75
2022/05/12 01:52:25;;;;;;;6.88;0.75;;;15.80;85.70;;;;;;5033860;28;20032;-75
2022/05/12 01:54:51;;;;;;;6.30;1.10;;;15.80;85.70;;;;;;5033729;28;20021;-75
2022/05/12 01:57:17;;;;;;;6.22;0.70;;;15.80;85.60;;;;;;5033983;28;20059;-75
2022/05/12 01:59:42;;;;;;;6.28;0.70;;;15.80;85.60;;;;;;5033666;28;20030;-75
2022/05/12 02:02:08;;;;;;;7.32;0.73;;;15.80;85.50;;;;;;5033607;28;20044;-75
2022/05/12 02:04:33;;;;;;;7.00;0.80;;;15.80;85.40;;;;;;5033829;28;20064;-75
2022/05/12 02:06:59;;;;;;;7.45;0.93;;;15.80;85.40;;;;;;5033808;28;20025;-74
2022/05/12 02:09:24;;;;;;;4.90;0.70;;;15.80;85.30;;;;;;5033582;28;20407;-74
2022/05/12 02:11:50;;;;;;;7.57;0.93;;;15.80;85.20;;;;;;5033748;28;20025;-74
2022/05/12 02:14:16;;;;;;;8.77;0.60;;;15.80;85.10;;;;;;5033805;28;20029;-74
2022/05/12 02:16:41;;;;;;;6.97;0.95;;;15.80;85.30;;;;;;5033778;28;20423;-75
2022/05/12 02:19:08;;;;;;;6.22;0.70;;;15.80;85.30;;;;;;5033783;28;20381;-75
2022/05/12 02:21:34;;;;;;;4.28;0.70;;;15.80;85.30;;;;;;5033447;28;20041;-74
2022/05/12 02:24:00;;;;;;;9.43;0.85;;;15.90;85.30;;;;;;5033537;28;20021;-74
2022/05/12 02:26:27;;;;;;;6.10;0.90;;;15.90;85.10;;;;;;5033223;28;20029;-75
2022/05/12 02:28:52;;;;;;;5.63;0.65;;;16.00;85.20;;;;;;5033393;28;20026;-76
2022/05/12 02:31:18;;;;;;;7.60;0.70;;;16.00;85.00;;;;;;5033407;28;20128;-75
2022/05/12 02:33:43;;;;;;;5.13;1.20;;;16.00;84.90;;;;;;5033621;28;20064;-75
2022/05/12 02:36:09;;;;;;;8.95;0.98;;;16.00;84.90;;;;;;5033121;28;20385;-75
2022/05/12 02:38:35;;;;;;;4.15;0.60;;;15.90;85.60;;;;;;5033453;28;20030;-75
2022/05/12 02:41:01;;;;;;;5.18;0.90;;;15.90;85.10;;;;;;5033437;28;20051;-75
2022/05/12 02:43:29;;;;;;;8.00;1.30;;;15.90;85.10;;;;;;5033097;28;20017;-75
2022/05/12 02:46:03;;;;;;;5.68;1.30;;;15.90;85.10;;;;;;5032588;28;20034;-75
2022/05/12 02:48:35;;;;;;;9.32;1.10;;;15.90;85.20;;;;;;5033124;28;20488;-75
2022/05/12 02:51:01;;;;;;;7.38;1.17;;;15.80;85.20;;;;;;5033288;28;20029;-75
2022/05/12 02:53:28;;;;;;;5.78;1.60;;;15.80;85.50;;;;;;5033618;28;20044;-75
2022/05/12 02:55:54;;;;;;;13.45;2.05;;;15.90;85.80;;;;;;5037163;28;20037;-75
2022/05/12 02:58:20;;;;;;;6.55;1.58;;;15.80;85.80;;;;;;5037251;28;20053;-75
2022/05/12 03:00:46;;;;;;;5.82;1.38;;;15.80;86.00;;;;;;5036917;28;20100;-75
2022/05/12 03:03:12;;;;;;;6.43;1.98;;;15.80;86.20;;;;;;5036867;28;20029;-75
2022/05/12 03:05:39;;;;;;;8.70;1.80;;;15.70;86.50;;;;;;5036958;28;20535;-75
2022/05/12 03:08:06;;;;;;;7.38;2.10;;;15.70;86.50;;;;;;5037105;28;20404;-75
2022/05/12 03:10:33;;;;;;;11.20;2.42;;;15.60;87.00;;;;;;5036889;28;20036;-75
2022/05/12 03:12:59;;;;;;;5.45;2.22;;;15.50;87.10;;;;;;5036439;28;20388;-75
2022/05/12 03:15:25;;;;;;;10.27;2.95;;;15.50;87.40;;;;;;5036955;28;20083;-75
2022/05/12 03:17:51;;;;;;;9.00;1.98;;;15.50;87.50;;;;;;5036997;28;20033;-75
2022/05/12 03:20:19;;;;;;;6.13;1.95;;;15.60;87.50;;;;;;5036670;28;20024;-75
2022/05/12 03:22:45;;;;;;;9.07;2.13;;;15.60;87.40;;;;;;5036625;28;20034;-75
2022/05/12 03:25:13;;;;;;;6.40;2.00;;;15.60;87.40;;;;;;5036491;28;20109;-74
2022/05/12 03:27:40;;;;;;;7.20;2.17;;;15.70;87.70;;;;;;5036416;28;20056;-74
2022/05/12 03:30:09;;;;;;;6.03;1.98;;;15.60;87.40;;;;;;5036616;28;20423;-74
2022/05/12 03:32:36;;;;;;;6.38;2.20;;;15.60;87.30;;;;;;5036683;28;20049;-74
2022/05/12 03:35:02;;;;;;;7.82;2.25;;;15.60;87.30;;;;;;5036317;28;20022;-74
2022/05/12 03:37:28;;;;;;;8.55;2.28;;;15.60;87.60;;;;;;5036562;28;20034;-74
2022/05/12 03:39:53;;;;;;;6.97;2.13;;;15.60;87.80;;;;;;5036344;28;20522;-74
2022/05/12 03:42:19;;;;;;;5.88;2.05;;;15.50;87.80;;;;;;5036191;28;20056;-75
2022/05/12 03:44:50;;;;;;;6.45;2.63;;;15.60;87.90;;;;;;5036055;28;20075;-74
2022/05/12 03:47:26;;;;;;;6.22;2.55;;;15.60;87.80;;;;;;5035409;28;20049;-74
2022/05/12 03:50:00;;;;;;;6.75;2.60;;;15.60;87.90;;;;;;5035240;28;20049;-74
2022/05/12 03:52:26;;;;;;;8.82;2.55;;;15.50;88.40;;;;;;5035190;28;20099;-74
2022/05/12 03:54:51;;;;;;;8.77;2.17;;;15.50;88.60;;;;;;5034505;28;20052;-74
2022/05/12 03:57:19;;;;;;;8.88;2.55;;;15.50;88.50;;;;;;5034797;28;20061;-74
2022/05/12 03:59:48;;;;;;;8.13;3.00;;;15.60;88.60;;;;;;5034854;28;20059;-77
2022/05/12 04:02:15;;;;;;;10.60;3.13;;;15.50;88.40;;;;;;5034824;28;20022;-76
2022/05/12 04:04:42;;;;;;;5.60;2.50;;;15.40;88.50;;;;;;5034097;28;20039;-75
2022/05/12 04:07:09;;;;;;;7.97;3.40;;;15.40;88.90;;;;;;5034798;28;20469;-74
2022/05/12 04:09:35;;;;;;;6.97;2.38;;;15.40;89.10;;;;;;5034886;28;20116;-74
2022/05/12 04:12:00;;;;;;;7.20;2.90;;;15.30;89.20;;;;;;5034599;28;20101;-74
2022/05/12 04:14:26;;;;;;;7.18;3.20;;;15.30;89.20;;;;;;5034456;28;20075;-74
2022/05/12 04:16:52;;;;;;;9.68;2.92;;;15.30;89.80;;;;;;5035012;28;20069;-74
2022/05/12 04:19:17;;;;;;;9.27;2.70;;;15.30;89.90;;;;;;5035249;28;20022;-74
2022/05/12 04:21:43;;;;;;;5.68;2.95;;;15.20;90.00;;;;;;5034260;28;20457;-74
2022/05/12 04:24:09;;;;;;;8.43;2.88;;;15.10;90.20;;;;;;5034108;28;20026;-74
2022/05/12 04:26:37;;;;;;;8.90;3.47;;;15.10;90.20;;;;;;5034594;28;20044;-75
2022/05/12 04:29:04;;;;;;;6.68;3.22;;;15.10;90.30;;;;;;5034545;28;20078;-74
2022/05/12 04:31:30;;;;;;;8.18;3.15;;;15.10;90.60;;;;;;5034168;28;20031;-74
2022/05/12 04:36:41;;;;;;;8.60;2.85;;;15.00;90.70;;;;;;5034185;28;20084;-74
2022/05/12 04:39:06;;;;;;;9.18;2.78;;;15.00;90.70;;;;;;5034094;28;20022;-74
2022/05/12 04:41:32;;;;;;;6.68;2.70;;;14.90;90.70;;;;;;5034001;28;20036;-74
2022/05/12 04:43:58;;;;;;;6.63;2.80;;;14.90;90.80;;;;;;5034135;28;20033;-75
2022/05/12 04:46:25;;;;;;;7.22;2.83;;;14.80;91.00;;;;;;4995729;28;1097739;-75
2022/05/12 04:48:51;;;;;;;6.65;2.30;;;14.80;91.00;;;;;;5035145;28;20044;-75
2022/05/12 04:51:17;;;;;;;6.55;2.67;;;14.70;91.00;;;;;;5035165;28;20473;-75
2022/05/12 04:53:43;;;;;;;4.47;2.28;;;14.80;91.10;;;;;;5035131;28;20032;-75
2022/05/12 04:56:08;;;;;;;6.72;2.25;;;14.70;91.30;;;;;;5035025;28;20031;-75
2022/05/12 04:58:34;;;;;;;5.85;2.28;;;14.70;91.30;;;;;;5034652;28;20175;-75
2022/05/12 05:00:59;;;;;;;7.40;2.45;;;14.70;91.40;;;;;;5034974;28;20056;-75
2022/05/12 05:03:25;;;;;;;5.60;2.45;;;14.70;91.40;;;;;;5034823;28;20730;-75
2022/05/12 05:05:51;;;;;;;5.72;2.33;;;14.70;91.50;;;;;;5034906;28;20052;-74
2022/05/12 05:08:21;;;;;;;4.85;2.35;;;14.50;91.70;;;;;;5034715;28;20049;-75
2022/05/12 05:10:48;;;;;;;7.75;2.05;;;14.50;92.00;;;;;;5034429;28;20080;-75
2022/05/12 05:13:14;;;;;;;6.70;2.53;;;14.40;92.20;;;;;;5034455;28;20032;-74
2022/05/12 05:15:40;;;;;;;9.80;3.17;;;14.40;92.30;;;;;;5033752;28;20029;-74
2022/05/12 05:18:10;;;;;;;7.60;2.50;;;14.40;92.40;;;;;;5034113;28;20029;-74
2022/05/12 05:20:35;;;;;;;5.80;2.20;;;14.40;92.40;;;;;;5034987;28;20060;-74
2022/05/12 05:23:01;;;;;;;8.55;2.90;;;14.50;92.30;;;;;;5034227;28;20064;-74
2022/05/12 05:25:26;;;;;;;6.00;2.13;;;14.60;92.30;;;;;;5034473;28;20431;-74
2022/05/12 05:27:54;;;;;;;7.47;2.63;;;14.60;92.30;;;;;;5034112;28;20217;-74
2022/05/12 05:30:22;;;;;;;7.75;2.72;;;14.60;92.40;;;;;;5034332;28;20377;-74
2022/05/12 05:32:48;;;;;;;9.00;2.72;;;14.60;92.40;;;;;;5034065;28;20055;-74
2022/05/12 05:35:15;;;;;;;15.05;3.10;;;14.50;92.50;;;;;;5033940;28;20155;-75
2022/05/12 05:37:42;;;;;;;7.43;2.47;;;14.50;92.60;;;;;;5033885;28;20036;-75
2022/05/12 05:40:14;;;;;;;15.57;4.07;;;14.50;92.60;;;;;;5034088;28;20104;-75
2022/05/12 05:42:41;;;;;;;6.93;2.78;;;14.60;92.70;;;;;;5033932;28;20153;-75
2022/05/12 05:45:11;;;;;;;9.82;2.60;;;14.70;92.80;;;;;;5033618;28;20029;-75
2022/05/12 05:47:38;;;;;;;14.93;3.03;;;14.70;92.70;;;;;;5033344;28;20505;-75
2022/05/12 05:50:05;;;;;;;5.57;2.42;;;14.80;92.70;;;;;;5033850;28;20021;-75
2022/05/12 05:55:15;;;;;;;8.65;3.08;;;14.90;92.60;;;;;;5033657;28;20032;-75
2022/05/12 05:57:42;;;;;;;5.82;3.03;;;15.00;92.60;;;;;;5032991;28;20112;-75
2022/05/12 06:00:09;;;;;;;5.70;2.70;;;15.10;92.60;;;;;;5033948;28;20091;-75
2022/05/12 06:02:35;;;;;;;12.18;3.67;;;15.20;92.50;;;;;;5033799;28;20075;-75
2022/05/12 06:05:00;;;;;;;9.27;3.60;;;15.20;92.60;;;;;;5033406;28;20013;-75
2022/05/12 06:07:26;;;;;;;10.98;3.28;;;15.10;92.60;;;;;;5033276;28;20028;-74
2022/05/12 06:09:52;;;;;;;9.65;3.85;;;15.20;92.60;;;;;;5033450;28;20077;-74
2022/05/12 06:12:18;;;;;;;9.93;3.70;;;15.20;92.70;;;;;;5033076;28;20017;-76
2022/05/12 06:14:44;;;;;;;8.00;3.17;;;15.30;92.70;;;;;;5033361;28;20037;-76
2022/05/12 06:17:10;;;;;;;9.70;3.95;;;15.50;92.60;;;;;;5033077;28;20504;-75
2022/05/12 06:19:36;;;;;;;11.23;3.45;;;15.50;92.50;;;;;;5033466;28;20049;-75
2022/05/12 06:22:02;;;;;;;8.50;3.55;;;15.60;92.40;;;;;;5032872;28;20435;-74
2022/05/12 06:24:28;;;;;;;11.25;3.90;;;15.70;92.40;;;;;;5032708;28;20025;-74
2022/05/12 06:26:54;;;;;;;11.88;4.30;;;15.80;92.10;;;;;;5033035;28;20044;-74
2022/05/12 06:29:20;;;;;;;14.70;4.45;;;15.80;92.00;;;;;;5033086;28;20053;-74
2022/05/12 06:31:47;;;;;;;10.20;3.63;;;15.90;92.10;;;;;;5033028;28;20026;-75
2022/05/12 06:34:13;;;;;;;12.05;4.30;;;16.00;92.20;;;;;;5032967;28;20438;-74
2022/05/12 06:36:39;;;;;;;14.98;4.30;;;16.10;91.80;;;;;;5032705;28;20033;-75
2022/05/12 06:39:06;;;;;;;9.25;4.35;;;16.10;91.60;;;;;;5033092;28;20402;-75
2022/05/12 06:41:32;;;;;;;10.75;4.32;;;16.10;91.50;;;;;;5032951;28;20022;-75
2022/05/12 06:43:58;;;;;;;9.73;3.75;;;16.20;91.50;;;;;;5033333;28;20029;-75
2022/05/12 06:46:25;;;;;;;12.32;3.58;;;16.20;91.20;;;;;;5032679;28;20064;-75
2022/05/12 06:48:51;;;;;;;14.93;4.50;;;16.30;91.20;;;;;;5032892;28;20029;-75
2022/05/12 06:51:18;;;;;;;12.00;4.38;;;16.40;91.20;;;;;;5032865;28;20034;-74
2022/05/12 06:53:45;;;;;;;12.35;3.90;;;16.30;91.30;;;;;;5032886;28;20036;-75
2022/05/12 06:56:11;;;;;;;9.90;3.95;;;16.40;91.50;;;;;;5032586;28;20551;-75
2022/05/12 06:58:37;;;;;;;8.63;3.70;;;16.50;91.00;;;;;;5033080;28;20029;-75
2022/05/12 07:01:04;;;;;;;10.60;3.50;;;16.60;90.90;;;;;;5032873;28;20034;-74
2022/05/12 07:03:30;;;;;;;11.85;3.88;;;16.70;90.70;;;;;;5032816;28;20025;-74
2022/05/12 07:05:57;;;;;;;7.07;3.30;;;16.80;90.30;;;;;;5032956;28;20029;-75
2022/05/12 07:08:24;;;;;;;9.18;3.10;;;16.90;90.10;;;;;;5032800;28;20034;-75
2022/05/12 07:10:52;;;;;;;10.60;3.70;;;17.00;89.70;;;;;;5032395;28;20477;-75
2022/05/12 07:13:21;;;;;;;6.63;3.22;;;17.00;88.60;;;;;;5032712;28;20034;-74
2022/05/12 07:15:49;;;;;;;10.45;3.75;;;17.00;88.40;;;;;;5032670;28;20030;-75
2022/05/12 07:18:16;;;;;;;9.63;2.70;;;17.10;87.20;;;;;;5032873;28;20091;-75
2022/05/12 07:28:53;;;;;;;7.55;2.40;;;17.20;85.00;;;;;;5032589;28;20032;-74
2022/05/12 07:31:20;;;;;;;8.45;2.50;;;17.20;85.00;;;;;;5032461;28;20400;-76
2022/05/12 07:33:47;;;;;;;8.07;2.53;;;17.30;84.90;;;;;;5032624;28;20147;-75
2022/05/12 07:36:23;;;;;;;10.10;3.03;;;17.40;85.90;;;;;;5032651;28;20052;-75
2022/05/12 07:38:49;;;;;;;11.05;2.75;;;17.60;84.60;;;;;;5032452;28;20029;-75
2022/05/12 07:41:16;;;;;;;8.77;3.05;;;17.70;83.80;;;;;;5036221;28;20028;-74
2022/05/12 07:43:44;;;;;;;5.03;2.60;;;17.70;83.20;;;;;;5035802;28;20412;-75
2022/05/12 07:46:11;;;;;;;9.48;2.28;;;17.70;82.30;;;;;;5035568;28;20135;-76
2022/05/12 07:48:38;;;;;;;7.40;2.08;;;17.70;81.10;;;;;;5035971;28;20068;-75
2022/05/12 07:51:05;;;;;;;8.40;2.50;;;17.70;81.60;;;;;;5035969;28;20029;-75
2022/05/12 07:53:31;;;;;;;8.38;2.45;;;17.80;81.80;;;;;;5035555;28;20384;-74
2022/05/12 07:55:56;;;;;;;8.95;2.88;;;17.90;81.40;;;;;;5035436;28;20493;-75
2022/05/12 07:58:22;;;;;;;6.82;2.10;;;18.00;81.10;;;;;;5035571;28;20069;-75
2022/05/12 08:00:47;;;;;;;11.93;2.40;;;18.00;79.10;;;;;;5035572;28;20032;-75
2022/05/12 08:03:13;;;;;;;6.53;2.33;;;18.10;79.00;;;;;;5035723;28;20087;-74
2022/05/12 08:05:39;;;;;;;6.20;2.20;;;18.10;78.80;;;;;;5036016;28;20021;-74
2022/05/12 08:08:06;;;;;;;10.68;2.70;;;18.10;78.40;;;;;;5035711;28;20025;-76
2022/05/12 08:10:33;;;;;;;6.18;2.40;;;18.10;78.70;;;;;;5036095;28;20025;-75
2022/05/12 08:12:59;;;;;;;10.10;3.50;;;18.20;79.30;;;;;;5035613;28;20021;-75
2022/05/12 08:15:25;;;;;;;7.13;2.08;;;18.40;79.30;;;;;;5035524;28;20461;-74
2022/05/12 08:17:59;;;;;;;11.02;2.30;;;18.40;78.70;;;;;;5035786;28;20037;-74
2022/05/12 08:20:25;;;;;;;9.18;2.17;;;18.40;77.70;;;;;;5035886;28;20025;-74
2022/05/12 08:22:51;;;;;;;9.60;2.50;;;18.40;76.60;;;;;;5035042;28;20025;-74
2022/05/12 08:25:18;;;;;;;6.45;1.83;;;18.40;75.80;;;;;;5035254;28;20108;-75
2022/05/12 08:27:44;;;;;;;11.13;2.70;;;18.40;75.10;;;;;;5035657;28;20029;-74
2022/05/12 08:30:15;;;;;;;8.73;2.00;;;18.50;75.40;;;;;;5035504;28;20022;-74
2022/05/12 08:32:42;;;;;;;6.13;1.83;;;18.50;75.80;;;;;;5035475;28;20168;-75
2022/05/12 08:35:08;;;;;;;6.72;1.80;;;18.40;75.50;;;;;;5034956;28;20465;-75
2022/05/12 08:37:33;;;;;;;8.57;2.08;;;18.30;73.90;;;;;;5034981;28;20041;-75
2022/05/12 08:40:00;;;;;;;5.88;1.65;;;18.20;74.30;;;;;;5035025;28;20022;-76
2022/05/12 08:42:41;;;;;;;12.85;1.88;;;18.30;74.10;;;;;;5035197;28;20029;-75
2022/05/12 08:45:09;;;;;;;9.95;1.48;;;18.30;74.00;;;;;;5035251;28;20039;-74
2022/05/12 08:47:47;;;;;;;7.15;1.75;;;18.50;73.20;;;;;;5034864;28;20049;-75
2022/05/12 08:50:27;;;;;;;5.30;1.70;;;18.30;71.50;;;;;;5034600;28;20029;-74
2022/05/12 08:53:03;;;;;;;7.32;1.80;;;18.40;71.80;;;;;;5034548;28;20038;-76
2022/05/12 08:55:35;;;;;;;8.60;1.77;;;18.40;71.70;;;;;;5034623;28;20473;-75
2022/05/12 08:58:05;;;;;;;8.73;1.83;;;18.50;71.70;;;;;;5035149;28;20051;-76
2022/05/12 09:00:57;;;;;;;7.43;1.50;;;18.40;70.20;;;;;;5034599;28;20504;-75
2022/05/12 09:03:49;;;;;;;5.90;1.42;;;18.60;70.70;;;;;;5035047;28;20033;-75
2022/05/12 09:06:32;;;;;;;3.92;1.10;;;18.60;70.30;;;;;;5034294;28;20041;-75
2022/05/12 09:09:22;;;;;;;3.28;1.15;;;18.80;70.40;;;;;;5034088;28;20048;-75
2022/05/12 09:12:13;;;;;;;4.10;1.17;;;19.00;69.00;;;;;;5034729;28;20064;-75
2022/05/12 09:14:59;;;;;;;6.95;1.42;;;19.00;68.80;;;;;;5034337;28;20022;-76
2022/05/12 09:17:43;;;;;;;4.55;1.17;;;18.90;68.30;;;;;;5034403;28;20056;-76
2022/05/12 09:20:10;;;;;;;6.60;1.15;;;18.80;66.40;;;;;;5034234;28;20412;-76
2022/05/12 09:22:36;;;;;;;4.22;1.58;;;18.50;66.90;;;;;;5034732;28;20029;-76
2022/05/12 09:25:03;;;;;;;8.13;1.30;;;18.40;66.70;;;;;;5034911;28;20057;-75
2022/05/12 09:27:35;;;;;;;13.90;1.52;;;18.30;66.50;;;;;;5034433;28;20022;-75
2022/05/12 09:30:02;;;;;;;6.18;1.00;;;18.30;66.50;;;;;;5034028;28;20030;-76
2022/05/12 09:32:33;;;;;;;2.65;0.85;;;18.40;65.00;;;;;;5034399;28;20087;-76
2022/05/12 09:35:11;;;;;;;7.15;1.85;;;18.50;65.50;;;;;;5034462;28;20037;-76
2022/05/12 09:37:40;;;;;;;5.18;1.27;;;18.70;65.70;;;;;;5033919;28;20558;-76
2022/05/12 09:40:20;;;;;;;5.95;0.93;;;18.80;64.60;;;;;;5033846;28;20033;-75
2022/05/12 09:42:52;;;;;;;4.82;0.73;;;19.00;64.20;;;;;;5033920;28;20080;-76
2022/05/12 09:45:21;;;;;;;4.80;0.90;;;19.10;62.70;;;;;;5034044;28;20100;-76
2022/05/12 09:47:46;;;;;;;3.42;0.63;;;19.30;62.80;;;;;;5033452;28;20512;-76
2022/05/12 09:50:22;;;;;;;3.83;1.38;;;19.50;61.90;;;;;;5033910;28;20034;-76
2022/05/12 09:52:53;;;;;;;3.92;0.80;;;19.60;61.40;;;;;;5033250;28;20022;-76
2022/05/12 09:55:31;;;;;;;5.10;1.02;;;19.80;62.10;;;;;;5033466;28;20018;-75
2022/05/12 09:58:14;;;;;;;2.97;0.85;;;19.90;60.70;;;;;;5033483;28;20021;-76
2022/05/12 10:00:44;;;;;;;4.85;0.73;;;20.00;59.40;;;;;;5033293;28;20052;-75
2022/05/12 10:09:06;;;;;;;3.05;0.73;;;19.60;58.80;;;;;;5033375;28;20494;-76
2022/05/12 10:12:00;;;;;;;4.43;0.50;;;19.50;60.60;;;;;;5033263;28;20029;-76
2022/05/12 10:14:46;;;;;;;3.78;0.75;;;19.70;59.00;;;;;;5033398;28;20021;-76
2022/05/12 10:17:44;;;;;;;4.05;0.98;;;19.90;58.80;;;;;;5033369;28;20444;-76
2022/05/12 10:20:18;;;;;;;2.58;0.70;;;20.00;57.70;;;;;;5032270;28;20034;-76
2022/05/12 10:22:53;;;;;;;2.70;0.40;;;20.20;57.80;;;;;;5033362;28;20090;-76
2022/05/12 10:25:37;;;;;;;3.17;0.60;;;20.30;57.30;;;;;;5033287;28;20018;-76
2022/05/12 10:28:11;;;;;;;6.22;0.43;;;20.40;55.30;;;;;;5033521;28;20072;-75
2022/05/12 10:30:42;;;;;;;5.45;0.60;;;20.40;55.20;;;;;;5033294;28;20025;-76
2022/05/12 10:33:23;;;;;;;3.08;0.50;;;20.30;55.40;;;;;;5033235;28;20059;-75
2022/05/12 10:36:04;;;;;;;5.18;0.60;;;20.10;54.90;;;;;;5032874;28;20544;-76
2022/05/12 10:39:02;;;;;;;4.25;0.50;;;20.10;56.60;;;;;;5033159;28;20051;-76
2022/05/12 10:41:36;;;;;;;3.22;0.40;;;20.20;56.10;;;;;;5024446;28;20113;-76
2022/05/12 10:44:04;;;;;;;3.20;0.40;;;20.20;56.40;;;;;;5042897;28;20461;-75
2022/05/12 10:46:48;;;;;;;2.50;0.40;;;20.40;56.00;;;;;;5072778;28;20037;-75
2022/05/12 10:49:14;;;;;;;3.47;0.60;;;20.40;55.40;;;;;;5072669;28;20066;-74
2022/05/12 10:52:12;;;;;;;3.03;0.63;;;20.50;56.20;;;;;;5052437;28;20025;-75
2022/05/12 10:54:59;;;;;;;2.30;0.50;;;20.50;55.30;;;;;;5052625;28;20025;-75
2022/05/12 10:57:45;;;;;;;1.92;0.40;;;20.60;55.80;;;;;;5052982;28;20134;-75
2022/05/12 11:00:36;;;;;;;4.45;0.50;;;20.60;55.80;;;;;;5051558;28;20029;-76
2022/05/12 11:03:26;;;;;;;2.22;0.30;;;20.60;54.80;;;;;;5052146;28;20049;-75
2022/05/12 11:06:03;;;;;;;4.50;1.05;;;20.60;55.10;;;;;;5032662;28;20033;-76
2022/05/12 11:08:37;;;;;;;1.58;0.50;;;20.60;53.80;;;;;;5032791;28;20036;-76
2022/05/12 11:11:08;;;;;;;4.60;0.90;;;20.60;54.00;;;;;;5032917;28;20030;-76
2022/05/12 11:13:39;;;;;;;2.45;0.40;;;20.60;53.60;;;;;;5032063;28;20511;-76
2022/05/12 11:16:20;;;;;;;5.25;0.57;;;20.60;53.20;;;;;;5037700;28;20048;-76
2022/05/12 11:18:51;;;;;;;4.70;0.50;;;20.60;53.80;;;;;;5055742;28;20021;-76
2022/05/12 11:21:27;;;;;;;3.63;0.40;;;20.70;55.80;;;;;;5056614;28;20034;-76
2022/05/12 11:23:53;;;;;;;4.57;1.00;;;20.60;55.50;;;;;;5056159;28;20029;-75
2022/05/12 11:26:38;;;;;;;3.00;0.75;;;20.60;55.40;;;;;;5056387;28;20029;-75
2022/05/12 11:32:37;;;;;;;3.92;0.70;;;20.40;54.20;;;;;;5056091;28;20052;-74
2022/05/12 11:35:08;;;;;;;2.53;0.55;;;20.50;53.60;;;;;;5056066;28;20025;-75
2022/05/12 11:37:53;;;;;;;3.28;0.40;;;20.60;53.00;;;;;;5056329;28;20033;-73
2022/05/12 11:40:43;;;;;;;1.40;0.30;;;20.70;54.70;;;;;;5055493;28;20036;-74
2022/05/12 11:46:18;;;;;;;3.80;0.40;;;20.90;51.80;;;;;;5055345;28;20040;-75
2022/05/12 11:48:56;;;;;;;3.45;0.38;;;20.90;51.90;;;;;;5056024;28;20028;-75
2022/05/12 11:51:54;;;;;;;2.63;0.45;;;20.90;51.90;;;;;;5055790;28;20033;-78
2022/05/12 11:54:26;;;;;;;1.50;0.57;;;20.90;52.10;;;;;;5055641;28;20021;-78
2022/05/12 11:56:55;;;;;;;2.92;0.47;;;21.00;52.00;;;;;;5055723;28;20086;-75
2022/05/12 11:59:28;;;;;;;2.88;0.85;;;21.10;52.00;;;;;;5055512;28;20060;-74
2022/05/12 12:02:25;;;;;;;3.75;0.43;;;21.30;51.00;;;;;;5055274;28;20036;-73
2022/05/12 12:04:52;;;;;;;1.77;0.30;;;21.30;50.70;;;;;;5055477;28;20020;-74
2022/05/12 12:07:21;;;;;;;5.05;0.40;;;21.30;49.70;;;;;;5055940;28;20082;-74
2022/05/12 12:09:51;;;;;;;3.20;0.52;;;21.40;49.30;;;;;;5055610;28;20055;-75
2022/05/12 12:12:45;;;;;;;2.97;0.50;;;21.40;49.00;;;;;;5055614;28;20108;-74
2022/05/12 12:15:33;;;;;;;3.08;0.50;;;21.30;48.40;;;;;;5055538;28;20465;-75
2022/05/12 12:18:01;;;;;;;3.28;0.52;;;21.30;49.40;;;;;;5055563;28;20119;-74
2022/05/12 12:20:29;;;;;;;2.83;0.40;;;21.40;49.10;;;;;;5055599;28;20071;-73
2022/05/12 12:23:26;;;;;;;2.83;0.35;;;21.40;49.50;;;;;;5055386;28;20029;-74
2022/05/12 12:26:05;;;;;;;1.60;0.30;;;21.40;48.90;;;;;;5055094;28;20029;-73
2022/05/12 12:29:12;;;;;;;2.85;0.63;;;21.40;48.90;;;;;;5055508;28;20032;-74
2022/05/12 12:31:44;;;;;;;1.58;0.20;;;21.40;48.50;;;;;;5055516;28;20033;-73
2022/05/12 12:34:21;;;;;;;3.90;0.50;;;21.50;47.80;;;;;;5055562;28;20028;-75
2022/05/12 12:36:49;;;;;;;2.67;0.95;;;21.70;46.50;;;;;;5055026;28;20481;-74
2022/05/12 12:39:50;;;;;;;2.20;0.40;;;21.90;47.80;;;;;;5055251;28;20032;-74
2022/05/12 12:42:34;;;;;;;2.92;0.40;;;22.00;47.00;;;;;;5055359;28;20025;-75
2022/05/12 12:45:26;;;;;;;1.92;0.30;;;21.80;46.80;;;;;;5055294;28;20025;-75
2022/05/12 12:48:00;;;;;;;5.20;0.60;;;21.60;46.20;;;;;;5051881;28;20087;-74
2022/05/12 12:50:52;;;;;;;4.47;0.47;;;21.70;46.60;;;;;;5054806;28;20033;-73
2022/05/12 12:56:30;;;;;;;2.78;0.40;;;21.70;47.60;;;;;;5054916;28;20025;-73
2022/05/12 12:56:31;;;;;;;4.05;0.63;;;21.70;46.90;;;;;;5054532;28;20457;-74
2022/05/12 12:59:16;;;;;;;1.88;0.38;;;21.70;47.50;;;;;;5054770;28;20047;-74
2022/05/12 13:01:47;;;;;;;1.90;0.28;;;21.70;45.70;;;;;;5054642;28;20033;-74
2022/05/12 13:04:16;;;;;;;1.75;0.30;;;21.50;45.50;;;;;;5054566;28;20024;-74
2022/05/12 13:06:58;;;;;;;5.18;0.40;;;21.40;46.10;;;;;;5054211;28;20122;-74
2022/05/12 13:09:32;;;;;;;5.50;0.70;;;21.30;46.40;;;;;;5054424;28;20480;-74
2022/05/12 13:12:07;;;;;;;1.48;0.30;;;21.30;47.30;;;;;;5054697;28;20036;-74
2022/05/12 13:14:35;;;;;;;1.77;0.45;;;21.40;47.80;;;;;;5053870;28;20508;-74
2022/05/12 13:17:01;;;;;;;1.95;0.70;;;21.50;47.00;;;;;;5053875;28;20041;-74
2022/05/12 13:19:33;;;;;;;4.22;0.50;;;21.60;45.70;;;;;;5053635;28;20061;-75
2022/05/12 13:21:59;;;;;;;;;;;21.70;45.30;;;;;;5054224;28;20025;-74
2022/05/12 13:24:27;;;;;;;5.38;0.70;;;21.90;45.70;;;;;;5053908;28;19905;-75
2022/05/12 13:26:59;;;;;;;2.55;0.30;;;21.90;46.70;;;;;;5053413;28;20100;-75
2022/05/12 13:29:31;;;;;;;3.20;0.40;;;21.90;44.50;;;;;;5053703;28;20044;-75